sensor_id;sensor_type;location;lat;lon;timestamp;P1;durP1;ratioP1;P2;durP2;ratioP2
59105;SDS011;44891;50.204;8.132;2022-09-09T00:01:42;5.45;;;1.85;;
59105;SDS011;44891;50.204;8.132;2022-09-09T00:05:55;3.92;;;1.30;;
59105;SDS011;44891;50.204;8.132;2022-09-09T00:10:09;3.63;;;1.52;;
59105;SDS011;44891;50.204;8.132;2022-09-09T00:14:21;3.50;;;1.50;;
59105;SDS011;44891;50.204;8.132;2022-09-09T00:18:31;3.92;;;1.70;;
59105;SDS011;44891;50.204;8.132;2022-09-09T00:22:54;6.55;;;1.80;;
59105;SDS011;44891;50.204;8.132;2022-09-09T00:31:11;3.65;;;1.60;;
59105;SDS011;44891;50.204;8.132;2022-09-09T00:35:16;4.05;;;1.50;;
59105;SDS011;44891;50.204;8.132;2022-09-09T00:39:25;4.05;;;1.83;;
59105;SDS011;44891;50.204;8.132;2022-09-09T00:43:33;4.55;;;1.65;;
59105;SDS011;44891;50.204;8.132;2022-09-09T00:47:43;2.45;;;1.60;;
59105;SDS011;44891;50.204;8.132;2022-09-09T00:51:49;3.25;;;1.50;;
59105;SDS011;44891;50.204;8.132;2022-09-09T00:56:01;4.38;;;1.73;;
59105;SDS011;44891;50.204;8.132;2022-09-09T01:00:17;3.83;;;1.70;;
59105;SDS011;44891;50.204;8.132;2022-09-09T01:04:23;4.63;;;1.70;;
59105;SDS011;44891;50.204;8.132;2022-09-09T01:08:35;5.15;;;1.77;;
59105;SDS011;44891;50.204;8.132;2022-09-09T01:13:08;3.58;;;1.38;;
59105;SDS011;44891;50.204;8.132;2022-09-09T01:17:17;5.15;;;1.83;;
59105;SDS011;44891;50.204;8.132;2022-09-09T01:21:33;4.53;;;1.70;;
59105;SDS011;44891;50.204;8.132;2022-09-09T01:30:14;5.68;;;1.60;;
59105;SDS011;44891;50.204;8.132;2022-09-09T01:34:19;3.08;;;1.50;;
59105;SDS011;44891;50.204;8.132;2022-09-09T01:38:24;3.78;;;1.60;;
59105;SDS011;44891;50.204;8.132;2022-09-09T01:42:29;3.72;;;1.65;;
59105;SDS011;44891;50.204;8.132;2022-09-09T01:46:32;4.63;;;1.50;;
59105;SDS011;44891;50.204;8.132;2022-09-09T01:50:36;3.55;;;1.88;;
59105;SDS011;44891;50.204;8.132;2022-09-09T01:54:39;5.68;;;1.73;;
59105;SDS011;44891;50.204;8.132;2022-09-09T01:58:55;4.90;;;1.75;;
59105;SDS011;44891;50.204;8.132;2022-09-09T02:03:06;4.43;;;1.60;;
59105;SDS011;44891;50.204;8.132;2022-09-09T02:07:30;3.90;;;1.80;;
59105;SDS011;44891;50.204;8.132;2022-09-09T02:11:44;4.75;;;2.17;;
59105;SDS011;44891;50.204;8.132;2022-09-09T02:16:00;4.00;;;1.73;;
59105;SDS011;44891;50.204;8.132;2022-09-09T02:20:09;3.45;;;1.50;;
59105;SDS011;44891;50.204;8.132;2022-09-09T02:24:20;3.83;;;1.83;;
59105;SDS011;44891;50.204;8.132;2022-09-09T02:28:33;4.75;;;1.80;;
59105;SDS011;44891;50.204;8.132;2022-09-09T02:32:39;3.63;;;1.70;;
59105;SDS011;44891;50.204;8.132;2022-09-09T02:36:47;5.00;;;1.63;;
59105;SDS011;44891;50.204;8.132;2022-09-09T02:40:51;3.15;;;1.60;;
59105;SDS011;44891;50.204;8.132;2022-09-09T02:44:54;6.03;;;1.92;;
59105;SDS011;44891;50.204;8.132;2022-09-09T02:48:59;4.22;;;1.60;;
59105;SDS011;44891;50.204;8.132;2022-09-09T02:57:17;3.45;;;1.90;;
59105;SDS011;44891;50.204;8.132;2022-09-09T03:01:24;5.55;;;1.90;;
59105;SDS011;44891;50.204;8.132;2022-09-09T03:05:28;2.85;;;1.65;;
59105;SDS011;44891;50.204;8.132;2022-09-09T03:09:30;5.78;;;2.13;;
59105;SDS011;44891;50.204;8.132;2022-09-09T03:13:33;8.95;;;2.20;;
59105;SDS011;44891;50.204;8.132;2022-09-09T03:17:36;3.85;;;1.92;;
59105;SDS011;44891;50.204;8.132;2022-09-09T03:21:39;5.18;;;2.08;;
59105;SDS011;44891;50.204;8.132;2022-09-09T03:25:46;5.18;;;2.15;;
59105;SDS011;44891;50.204;8.132;2022-09-09T03:29:48;4.72;;;2.30;;
59105;SDS011;44891;50.204;8.132;2022-09-09T03:33:55;7.22;;;2.10;;
59105;SDS011;44891;50.204;8.132;2022-09-09T03:38:01;6.40;;;2.25;;
59105;SDS011;44891;50.204;8.132;2022-09-09T03:42:06;4.55;;;1.98;;
59105;SDS011;44891;50.204;8.132;2022-09-09T03:46:09;6.13;;;2.70;;
59105;SDS011;44891;50.204;8.132;2022-09-09T03:50:12;6.05;;;2.58;;
59105;SDS011;44891;50.204;8.132;2022-09-09T03:54:20;5.97;;;2.40;;
59105;SDS011;44891;50.204;8.132;2022-09-09T03:58:22;5.18;;;3.00;;
59105;SDS011;44891;50.204;8.132;2022-09-09T04:02:27;4.93;;;2.63;;
59105;SDS011;44891;50.204;8.132;2022-09-09T04:06:29;4.30;;;2.30;;
59105;SDS011;44891;50.204;8.132;2022-09-09T04:10:33;3.70;;;2.70;;
59105;SDS011;44891;50.204;8.132;2022-09-09T04:14:38;6.28;;;2.83;;
59105;SDS011;44891;50.204;8.132;2022-09-09T04:18:41;5.18;;;2.47;;
59105;SDS011;44891;50.204;8.132;2022-09-09T04:22:43;5.63;;;3.03;;
59105;SDS011;44891;50.204;8.132;2022-09-09T04:26:48;5.47;;;3.38;;
59105;SDS011;44891;50.204;8.132;2022-09-09T04:30:51;3.42;;;2.92;;
59105;SDS011;44891;50.204;8.132;2022-09-09T04:34:54;5.38;;;3.28;;
59105;SDS011;44891;50.204;8.132;2022-09-09T04:38:56;4.93;;;3.10;;
59105;SDS011;44891;50.204;8.132;2022-09-09T04:42:59;4.03;;;2.90;;
59105;SDS011;44891;50.204;8.132;2022-09-09T04:47:03;4.63;;;2.95;;
59105;SDS011;44891;50.204;8.132;2022-09-09T04:51:08;6.85;;;3.40;;
59105;SDS011;44891;50.204;8.132;2022-09-09T04:55:12;4.82;;;3.33;;
59105;SDS011;44891;50.204;8.132;2022-09-09T04:59:19;6.80;;;3.70;;
59105;SDS011;44891;50.204;8.132;2022-09-09T05:03:26;5.53;;;3.10;;
59105;SDS011;44891;50.204;8.132;2022-09-09T05:07:29;6.53;;;3.10;;
59105;SDS011;44891;50.204;8.132;2022-09-09T05:11:32;6.47;;;3.35;;
59105;SDS011;44891;50.204;8.132;2022-09-09T05:15:52;5.63;;;2.78;;
59105;SDS011;44891;50.204;8.132;2022-09-09T05:19:55;5.65;;;2.72;;
59105;SDS011;44891;50.204;8.132;2022-09-09T05:23:57;5.35;;;2.80;;
59105;SDS011;44891;50.204;8.132;2022-09-09T05:28:01;4.97;;;2.88;;
59105;SDS011;44891;50.204;8.132;2022-09-09T05:32:05;4.28;;;2.65;;
59105;SDS011;44891;50.204;8.132;2022-09-09T05:36:10;4.63;;;2.78;;
59105;SDS011;44891;50.204;8.132;2022-09-09T05:40:14;4.32;;;2.50;;
59105;SDS011;44891;50.204;8.132;2022-09-09T05:44:17;4.75;;;2.88;;
59105;SDS011;44891;50.204;8.132;2022-09-09T05:48:21;5.60;;;2.70;;
59105;SDS011;44891;50.204;8.132;2022-09-09T05:52:24;5.72;;;3.00;;
59105;SDS011;44891;50.204;8.132;2022-09-09T05:56:27;5.88;;;2.63;;
59105;SDS011;44891;50.204;8.132;2022-09-09T06:00:32;6.93;;;2.88;;
59105;SDS011;44891;50.204;8.132;2022-09-09T06:04:36;5.10;;;2.80;;
59105;SDS011;44891;50.204;8.132;2022-09-09T06:08:40;6.78;;;2.90;;
59105;SDS011;44891;50.204;8.132;2022-09-09T06:12:45;4.28;;;2.90;;
59105;SDS011;44891;50.204;8.132;2022-09-09T06:16:47;3.80;;;3.13;;
59105;SDS011;44891;50.204;8.132;2022-09-09T06:21:00;4.03;;;3.33;;
59105;SDS011;44891;50.204;8.132;2022-09-09T06:25:06;5.93;;;3.60;;
59105;SDS011;44891;50.204;8.132;2022-09-09T06:29:10;7.78;;;3.10;;
59105;SDS011;44891;50.204;8.132;2022-09-09T06:33:13;5.07;;;2.97;;
59105;SDS011;44891;50.204;8.132;2022-09-09T06:37:17;6.53;;;3.30;;
59105;SDS011;44891;50.204;8.132;2022-09-09T06:41:24;6.72;;;3.38;;
59105;SDS011;44891;50.204;8.132;2022-09-09T06:45:28;6.85;;;3.20;;
59105;SDS011;44891;50.204;8.132;2022-09-09T06:49:33;6.55;;;3.20;;
59105;SDS011;44891;50.204;8.132;2022-09-09T06:53:39;6.60;;;3.38;;
59105;SDS011;44891;50.204;8.132;2022-09-09T06:57:43;7.63;;;3.70;;
59105;SDS011;44891;50.204;8.132;2022-09-09T07:01:51;7.32;;;3.85;;
59105;SDS011;44891;50.204;8.132;2022-09-09T07:05:55;7.10;;;3.92;;
59105;SDS011;44891;50.204;8.132;2022-09-09T07:10:00;4.88;;;3.40;;
59105;SDS011;44891;50.204;8.132;2022-09-09T07:14:05;6.28;;;3.88;;
59105;SDS011;44891;50.204;8.132;2022-09-09T07:18:08;7.32;;;3.75;;
59105;SDS011;44891;50.204;8.132;2022-09-09T07:22:11;7.47;;;4.22;;
59105;SDS011;44891;50.204;8.132;2022-09-09T07:26:16;6.13;;;3.60;;
59105;SDS011;44891;50.204;8.132;2022-09-09T07:30:20;4.53;;;3.17;;
59105;SDS011;44891;50.204;8.132;2022-09-09T07:34:23;8.05;;;3.35;;
59105;SDS011;44891;50.204;8.132;2022-09-09T07:38:26;4.95;;;3.17;;
59105;SDS011;44891;50.204;8.132;2022-09-09T07:42:30;6.30;;;3.40;;
59105;SDS011;44891;50.204;8.132;2022-09-09T07:46:33;6.65;;;3.72;;
59105;SDS011;44891;50.204;8.132;2022-09-09T07:50:36;6.78;;;4.40;;
59105;SDS011;44891;50.204;8.132;2022-09-09T07:54:39;7.53;;;4.43;;
59105;SDS011;44891;50.204;8.132;2022-09-09T07:58:44;7.28;;;3.85;;
59105;SDS011;44891;50.204;8.132;2022-09-09T08:02:47;5.40;;;3.47;;
59105;SDS011;44891;50.204;8.132;2022-09-09T08:06:50;7.88;;;3.95;;
59105;SDS011;44891;50.204;8.132;2022-09-09T08:11:01;7.28;;;3.70;;
59105;SDS011;44891;50.204;8.132;2022-09-09T08:15:06;6.07;;;3.40;;
59105;SDS011;44891;50.204;8.132;2022-09-09T08:19:09;4.05;;;3.50;;
59105;SDS011;44891;50.204;8.132;2022-09-09T08:23:13;7.15;;;3.72;;
59105;SDS011;44891;50.204;8.132;2022-09-09T08:27:15;6.70;;;3.35;;
59105;SDS011;44891;50.204;8.132;2022-09-09T08:31:20;5.80;;;3.25;;
59105;SDS011;44891;50.204;8.132;2022-09-09T08:35:23;5.85;;;3.50;;
59105;SDS011;44891;50.204;8.132;2022-09-09T08:39:26;6.55;;;3.80;;
59105;SDS011;44891;50.204;8.132;2022-09-09T08:43:28;6.15;;;3.25;;
59105;SDS011;44891;50.204;8.132;2022-09-09T08:47:37;7.05;;;3.10;;
59105;SDS011;44891;50.204;8.132;2022-09-09T08:51:48;4.43;;;3.03;;
59105;SDS011;44891;50.204;8.132;2022-09-09T08:55:52;9.15;;;3.00;;
59105;SDS011;44891;50.204;8.132;2022-09-09T09:00:10;3.97;;;2.88;;
59105;SDS011;44891;50.204;8.132;2022-09-09T09:04:19;4.55;;;3.00;;
59105;SDS011;44891;50.204;8.132;2022-09-09T09:08:33;5.65;;;2.88;;
59105;SDS011;44891;50.204;8.132;2022-09-09T09:12:43;6.95;;;3.00;;
59105;SDS011;44891;50.204;8.132;2022-09-09T09:16:50;4.72;;;2.90;;
59105;SDS011;44891;50.204;8.132;2022-09-09T09:20:59;5.25;;;2.90;;
59105;SDS011;44891;50.204;8.132;2022-09-09T09:25:10;5.00;;;2.70;;
59105;SDS011;44891;50.204;8.132;2022-09-09T09:29:19;4.97;;;2.60;;
59105;SDS011;44891;50.204;8.132;2022-09-09T09:33:25;6.88;;;2.10;;
59105;SDS011;44891;50.204;8.132;2022-09-09T09:37:36;6.72;;;2.17;;
59105;SDS011;44891;50.204;8.132;2022-09-09T09:41:41;5.10;;;1.95;;
59105;SDS011;44891;50.204;8.132;2022-09-09T09:45:46;3.92;;;1.90;;
59105;SDS011;44891;50.204;8.132;2022-09-09T09:49:51;7.13;;;2.30;;
59105;SDS011;44891;50.204;8.132;2022-09-09T09:54:02;3.88;;;2.22;;
59105;SDS011;44891;50.204;8.132;2022-09-09T09:58:14;7.07;;;2.38;;
59105;SDS011;44891;50.204;8.132;2022-09-09T10:02:19;4.20;;;2.28;;
59105;SDS011;44891;50.204;8.132;2022-09-09T10:06:30;3.70;;;1.85;;
59105;SDS011;44891;50.204;8.132;2022-09-09T10:10:40;4.53;;;2.08;;
59105;SDS011;44891;50.204;8.132;2022-09-09T10:14:52;4.60;;;1.98;;
59105;SDS011;44891;50.204;8.132;2022-09-09T10:23:09;3.22;;;1.70;;
59105;SDS011;44891;50.204;8.132;2022-09-09T10:27:23;2.58;;;1.60;;
59105;SDS011;44891;50.204;8.132;2022-09-09T10:31:35;4.53;;;1.80;;
59105;SDS011;44891;50.204;8.132;2022-09-09T10:35:44;4.00;;;1.77;;
59105;SDS011;44891;50.204;8.132;2022-09-09T10:39:54;2.10;;;1.30;;
59105;SDS011;44891;50.204;8.132;2022-09-09T10:44:14;4.35;;;1.48;;
59105;SDS011;44891;50.204;8.132;2022-09-09T10:48:30;3.38;;;1.27;;
59105;SDS011;44891;50.204;8.132;2022-09-09T10:52:40;3.15;;;1.30;;
59105;SDS011;44891;50.204;8.132;2022-09-09T10:56:54;2.80;;;1.20;;
59105;SDS011;44891;50.204;8.132;2022-09-09T11:01:02;4.32;;;1.00;;
59105;SDS011;44891;50.204;8.132;2022-09-09T11:05:14;3.15;;;1.00;;
59105;SDS011;44891;50.204;8.132;2022-09-09T11:09:21;2.10;;;0.90;;
59105;SDS011;44891;50.204;8.132;2022-09-09T11:13:28;2.30;;;0.90;;
59105;SDS011;44891;50.204;8.132;2022-09-09T11:17:39;2.22;;;1.20;;
59105;SDS011;44891;50.204;8.132;2022-09-09T11:21:47;3.20;;;1.33;;
59105;SDS011;44891;50.204;8.132;2022-09-09T11:25:53;2.13;;;1.10;;
59105;SDS011;44891;50.204;8.132;2022-09-09T11:30:10;4.72;;;1.25;;
59105;SDS011;44891;50.204;8.132;2022-09-09T11:34:26;3.15;;;1.20;;
59105;SDS011;44891;50.204;8.132;2022-09-09T11:38:40;2.33;;;1.00;;
59105;SDS011;44891;50.204;8.132;2022-09-09T11:42:47;2.42;;;1.02;;
59105;SDS011;44891;50.204;8.132;2022-09-09T11:46:50;2.58;;;0.98;;
59105;SDS011;44891;50.204;8.132;2022-09-09T11:50:58;2.88;;;1.00;;
59105;SDS011;44891;50.204;8.132;2022-09-09T11:55:08;3.22;;;1.10;;
59105;SDS011;44891;50.204;8.132;2022-09-09T11:59:19;2.88;;;1.05;;
59105;SDS011;44891;50.204;8.132;2022-09-09T12:03:34;4.63;;;1.10;;
59105;SDS011;44891;50.204;8.132;2022-09-09T12:07:46;4.72;;;1.00;;
59105;SDS011;44891;50.204;8.132;2022-09-09T12:12:04;3.78;;;1.35;;
59105;SDS011;44891;50.204;8.132;2022-09-09T12:20:35;3.35;;;1.30;;
59105;SDS011;44891;50.204;8.132;2022-09-09T12:24:40;2.97;;;1.20;;
59105;SDS011;44891;50.204;8.132;2022-09-09T12:28:50;2.22;;;1.00;;
59105;SDS011;44891;50.204;8.132;2022-09-09T12:33:00;2.30;;;0.90;;
59105;SDS011;44891;50.204;8.132;2022-09-09T12:37:05;2.47;;;0.90;;
59105;SDS011;44891;50.204;8.132;2022-09-09T12:41:20;2.25;;;0.90;;
59105;SDS011;44891;50.204;8.132;2022-09-09T12:45:25;2.13;;;1.00;;
59105;SDS011;44891;50.204;8.132;2022-09-09T12:49:32;2.22;;;0.80;;
59105;SDS011;44891;50.204;8.132;2022-09-09T12:53:38;1.90;;;0.80;;
59105;SDS011;44891;50.204;8.132;2022-09-09T12:57:42;3.30;;;0.95;;
59105;SDS011;44891;50.204;8.132;2022-09-09T13:01:46;3.88;;;0.95;;
59105;SDS011;44891;50.204;8.132;2022-09-09T13:05:57;3.57;;;1.00;;
59105;SDS011;44891;50.204;8.132;2022-09-09T13:10:01;2.15;;;0.82;;
59105;SDS011;44891;50.204;8.132;2022-09-09T13:14:04;2.33;;;0.77;;
59105;SDS011;44891;50.204;8.132;2022-09-09T13:18:11;3.33;;;0.90;;
59105;SDS011;44891;50.204;8.132;2022-09-09T13:22:19;2.95;;;1.00;;
59105;SDS011;44891;50.204;8.132;2022-09-09T13:26:24;2.75;;;0.80;;
59105;SDS011;44891;50.204;8.132;2022-09-09T13:30:29;1.90;;;0.60;;
59105;SDS011;44891;50.204;8.132;2022-09-09T13:34:36;2.55;;;0.68;;
59105;SDS011;44891;50.204;8.132;2022-09-09T13:38:40;1.83;;;0.93;;
59105;SDS011;44891;50.204;8.132;2022-09-09T13:42:55;2.70;;;0.80;;
59105;SDS011;44891;50.204;8.132;2022-09-09T13:47:00;3.00;;;1.00;;
59105;SDS011;44891;50.204;8.132;2022-09-09T13:51:22;2.30;;;0.98;;
59105;SDS011;44891;50.204;8.132;2022-09-09T13:55:31;2.17;;;1.10;;
59105;SDS011;44891;50.204;8.132;2022-09-09T13:59:33;2.20;;;1.20;;
59105;SDS011;44891;50.204;8.132;2022-09-09T14:03:38;3.38;;;1.20;;
59105;SDS011;44891;50.204;8.132;2022-09-09T14:07:40;2.63;;;1.10;;
59105;SDS011;44891;50.204;8.132;2022-09-09T14:11:43;4.05;;;1.15;;
59105;SDS011;44891;50.204;8.132;2022-09-09T14:15:47;2.53;;;1.10;;
59105;SDS011;44891;50.204;8.132;2022-09-09T14:19:51;2.55;;;1.17;;
59105;SDS011;44891;50.204;8.132;2022-09-09T14:23:53;5.35;;;1.30;;
59105;SDS011;44891;50.204;8.132;2022-09-09T14:27:55;6.03;;;1.85;;
59105;SDS011;44891;50.204;8.132;2022-09-09T14:31:58;3.35;;;1.10;;
59105;SDS011;44891;50.204;8.132;2022-09-09T14:36:03;2.05;;;1.00;;
59105;SDS011;44891;50.204;8.132;2022-09-09T14:40:06;1.95;;;0.80;;
59105;SDS011;44891;50.204;8.132;2022-09-09T14:44:09;2.10;;;0.95;;
59105;SDS011;44891;50.204;8.132;2022-09-09T14:48:11;4.85;;;1.10;;
59105;SDS011;44891;50.204;8.132;2022-09-09T14:52:15;2.58;;;0.75;;
59105;SDS011;44891;50.204;8.132;2022-09-09T14:56:18;1.88;;;0.80;;
59105;SDS011;44891;50.204;8.132;2022-09-09T15:00:22;3.03;;;0.98;;
59105;SDS011;44891;50.204;8.132;2022-09-09T15:04:25;3.50;;;0.90;;
59105;SDS011;44891;50.204;8.132;2022-09-09T15:08:29;3.58;;;0.98;;
59105;SDS011;44891;50.204;8.132;2022-09-09T15:12:31;3.17;;;1.20;;
59105;SDS011;44891;50.204;8.132;2022-09-09T15:16:34;2.42;;;1.10;;
59105;SDS011;44891;50.204;8.132;2022-09-09T15:20:36;2.72;;;1.33;;
59105;SDS011;44891;50.204;8.132;2022-09-09T15:24:40;4.97;;;1.10;;
59105;SDS011;44891;50.204;8.132;2022-09-09T15:28:42;2.22;;;1.05;;
59105;SDS011;44891;50.204;8.132;2022-09-09T15:32:46;2.58;;;1.00;;
59105;SDS011;44891;50.204;8.132;2022-09-09T15:36:48;2.75;;;0.93;;
59105;SDS011;44891;50.204;8.132;2022-09-09T15:40:54;3.08;;;1.13;;
59105;SDS011;44891;50.204;8.132;2022-09-09T15:44:56;3.55;;;1.08;;
59105;SDS011;44891;50.204;8.132;2022-09-09T15:49:02;1.88;;;0.80;;
59105;SDS011;44891;50.204;8.132;2022-09-09T15:53:06;1.58;;;0.90;;
59105;SDS011;44891;50.204;8.132;2022-09-09T15:57:11;3.17;;;1.00;;
59105;SDS011;44891;50.204;8.132;2022-09-09T16:01:14;2.63;;;0.90;;
59105;SDS011;44891;50.204;8.132;2022-09-09T16:05:17;2.85;;;1.27;;
59105;SDS011;44891;50.204;8.132;2022-09-09T16:09:20;4.22;;;1.73;;
59105;SDS011;44891;50.204;8.132;2022-09-09T16:13:24;3.00;;;1.30;;
59105;SDS011;44891;50.204;8.132;2022-09-09T16:17:26;2.95;;;1.30;;
59105;SDS011;44891;50.204;8.132;2022-09-09T16:21:29;2.03;;;1.00;;
59105;SDS011;44891;50.204;8.132;2022-09-09T16:25:33;2.88;;;1.00;;
59105;SDS011;44891;50.204;8.132;2022-09-09T16:29:37;1.65;;;1.00;;
59105;SDS011;44891;50.204;8.132;2022-09-09T16:33:39;3.22;;;1.10;;
59105;SDS011;44891;50.204;8.132;2022-09-09T16:37:41;2.67;;;1.50;;
59105;SDS011;44891;50.204;8.132;2022-09-09T16:41:44;2.33;;;0.80;;
59105;SDS011;44891;50.204;8.132;2022-09-09T16:45:49;1.65;;;0.90;;
59105;SDS011;44891;50.204;8.132;2022-09-09T16:49:51;2.28;;;0.80;;
59105;SDS011;44891;50.204;8.132;2022-09-09T16:53:53;1.38;;;0.70;;
59105;SDS011;44891;50.204;8.132;2022-09-09T16:57:56;2.58;;;0.98;;
59105;SDS011;44891;50.204;8.132;2022-09-09T17:01:59;1.67;;;0.90;;
59105;SDS011;44891;50.204;8.132;2022-09-09T17:06:08;2.40;;;1.13;;
59105;SDS011;44891;50.204;8.132;2022-09-09T17:10:11;2.05;;;0.80;;
59105;SDS011;44891;50.204;8.132;2022-09-09T17:14:14;3.05;;;0.90;;
59105;SDS011;44891;50.204;8.132;2022-09-09T17:18:19;1.23;;;0.70;;
59105;SDS011;44891;50.204;8.132;2022-09-09T17:22:21;1.73;;;0.98;;
59105;SDS011;44891;50.204;8.132;2022-09-09T17:26:25;2.33;;;1.10;;
59105;SDS011;44891;50.204;8.132;2022-09-09T17:30:28;1.95;;;1.20;;
59105;SDS011;44891;50.204;8.132;2022-09-09T17:34:32;2.83;;;1.10;;
59105;SDS011;44891;50.204;8.132;2022-09-09T17:38:34;2.40;;;1.20;;
59105;SDS011;44891;50.204;8.132;2022-09-09T17:42:37;2.33;;;1.20;;
59105;SDS011;44891;50.204;8.132;2022-09-09T17:46:39;3.50;;;1.10;;
59105;SDS011;44891;50.204;8.132;2022-09-09T17:50:44;4.10;;;1.40;;
59105;SDS011;44891;50.204;8.132;2022-09-09T17:54:47;1.30;;;1.08;;
59105;SDS011;44891;50.204;8.132;2022-09-09T17:58:50;1.73;;;1.10;;
59105;SDS011;44891;50.204;8.132;2022-09-09T18:02:53;2.95;;;1.33;;
59105;SDS011;44891;50.204;8.132;2022-09-09T18:06:56;1.55;;;1.10;;
59105;SDS011;44891;50.204;8.132;2022-09-09T18:10:59;2.55;;;1.13;;
59105;SDS011;44891;50.204;8.132;2022-09-09T18:15:01;3.95;;;1.67;;
59105;SDS011;44891;50.204;8.132;2022-09-09T18:19:05;3.35;;;1.35;;
59105;SDS011;44891;50.204;8.132;2022-09-09T18:23:10;3.33;;;1.30;;
59105;SDS011;44891;50.204;8.132;2022-09-09T18:27:12;2.33;;;1.20;;
59105;SDS011;44891;50.204;8.132;2022-09-09T18:31:15;1.52;;;0.90;;
59105;SDS011;44891;50.204;8.132;2022-09-09T18:35:19;1.83;;;1.10;;
59105;SDS011;44891;50.204;8.132;2022-09-09T18:39:23;4.32;;;1.10;;
59105;SDS011;44891;50.204;8.132;2022-09-09T18:43:27;1.75;;;1.13;;
59105;SDS011;44891;50.204;8.132;2022-09-09T18:47:29;1.60;;;0.80;;
59105;SDS011;44891;50.204;8.132;2022-09-09T18:51:31;4.10;;;0.93;;
59105;SDS011;44891;50.204;8.132;2022-09-09T18:55:38;1.98;;;0.93;;
59105;SDS011;44891;50.204;8.132;2022-09-09T18:59:40;1.70;;;0.80;;
59105;SDS011;44891;50.204;8.132;2022-09-09T19:03:42;1.77;;;1.05;;
59105;SDS011;44891;50.204;8.132;2022-09-09T19:07:44;1.38;;;0.88;;
59105;SDS011;44891;50.204;8.132;2022-09-09T19:11:47;0.98;;;0.88;;
59105;SDS011;44891;50.204;8.132;2022-09-09T19:15:50;1.80;;;1.10;;
59105;SDS011;44891;50.204;8.132;2022-09-09T19:19:52;1.92;;;0.90;;
59105;SDS011;44891;50.204;8.132;2022-09-09T19:23:55;4.32;;;1.25;;
59105;SDS011;44891;50.204;8.132;2022-09-09T19:28:01;2.65;;;1.15;;
59105;SDS011;44891;50.204;8.132;2022-09-09T19:32:03;2.95;;;1.20;;
59105;SDS011;44891;50.204;8.132;2022-09-09T19:36:06;2.60;;;1.10;;
59105;SDS011;44891;50.204;8.132;2022-09-09T19:40:09;2.45;;;0.90;;
59105;SDS011;44891;50.204;8.132;2022-09-09T19:44:13;2.05;;;0.90;;
59105;SDS011;44891;50.204;8.132;2022-09-09T19:48:16;1.77;;;0.70;;
59105;SDS011;44891;50.204;8.132;2022-09-09T19:52:21;1.50;;;0.50;;
59105;SDS011;44891;50.204;8.132;2022-09-09T19:56:23;1.67;;;0.60;;
59105;SDS011;44891;50.204;8.132;2022-09-09T20:00:28;1.17;;;0.47;;
59105;SDS011;44891;50.204;8.132;2022-09-09T20:04:31;2.35;;;0.65;;
59105;SDS011;44891;50.204;8.132;2022-09-09T20:08:34;1.75;;;0.70;;
59105;SDS011;44891;50.204;8.132;2022-09-09T20:12:37;0.90;;;0.63;;
59105;SDS011;44891;50.204;8.132;2022-09-09T20:16:41;1.33;;;0.60;;
59105;SDS011;44891;50.204;8.132;2022-09-09T20:20:45;1.40;;;0.63;;
59105;SDS011;44891;50.204;8.132;2022-09-09T20:24:48;1.98;;;0.73;;
59105;SDS011;44891;50.204;8.132;2022-09-09T20:28:51;0.95;;;0.70;;
59105;SDS011;44891;50.204;8.132;2022-09-09T20:32:55;0.98;;;0.77;;
59105;SDS011;44891;50.204;8.132;2022-09-09T20:36:58;1.90;;;0.70;;
59105;SDS011;44891;50.204;8.132;2022-09-09T20:41:02;2.63;;;1.20;;
59105;SDS011;44891;50.204;8.132;2022-09-09T20:45:05;3.25;;;1.10;;
59105;SDS011;44891;50.204;8.132;2022-09-09T20:49:10;1.85;;;1.00;;
59105;SDS011;44891;50.204;8.132;2022-09-09T20:53:12;3.35;;;3.05;;
59105;SDS011;44891;50.204;8.132;2022-09-09T20:57:15;1.35;;;1.00;;
59105;SDS011;44891;50.204;8.132;2022-09-09T21:01:21;1.95;;;1.00;;
59105;SDS011;44891;50.204;8.132;2022-09-09T21:05:25;2.38;;;1.50;;
59105;SDS011;44891;50.204;8.132;2022-09-09T21:09:27;1.98;;;1.00;;
59105;SDS011;44891;50.204;8.132;2022-09-09T21:13:29;1.90;;;0.93;;
59105;SDS011;44891;50.204;8.132;2022-09-09T21:17:33;2.38;;;1.10;;
59105;SDS011;44891;50.204;8.132;2022-09-09T21:21:37;3.17;;;1.55;;
59105;SDS011;44891;50.204;8.132;2022-09-09T21:25:39;1.80;;;1.00;;
59105;SDS011;44891;50.204;8.132;2022-09-09T21:29:41;1.92;;;1.20;;
59105;SDS011;44891;50.204;8.132;2022-09-09T21:33:44;2.58;;;1.00;;
59105;SDS011;44891;50.204;8.132;2022-09-09T21:37:48;2.17;;;1.38;;
59105;SDS011;44891;50.204;8.132;2022-09-09T21:41:50;5.03;;;1.40;;
59105;SDS011;44891;50.204;8.132;2022-09-09T21:45:52;4.47;;;1.35;;
59105;SDS011;44891;50.204;8.132;2022-09-09T21:49:54;1.58;;;1.30;;
59105;SDS011;44891;50.204;8.132;2022-09-09T21:53:58;4.00;;;1.30;;
59105;SDS011;44891;50.204;8.132;2022-09-09T21:58:00;3.35;;;1.20;;
59105;SDS011;44891;50.204;8.132;2022-09-09T22:02:02;2.40;;;1.40;;
59105;SDS011;44891;50.204;8.132;2022-09-09T22:06:05;2.83;;;1.35;;
59105;SDS011;44891;50.204;8.132;2022-09-09T22:10:09;4.03;;;1.73;;
59105;SDS011;44891;50.204;8.132;2022-09-09T22:14:12;3.47;;;1.60;;
59105;SDS011;44891;50.204;8.132;2022-09-09T22:18:15;3.83;;;1.63;;
59105;SDS011;44891;50.204;8.132;2022-09-09T22:22:18;5.22;;;1.40;;
59105;SDS011;44891;50.204;8.132;2022-09-09T22:26:22;3.20;;;1.58;;
59105;SDS011;44891;50.204;8.132;2022-09-09T22:30:26;4.97;;;2.00;;
59105;SDS011;44891;50.204;8.132;2022-09-09T22:34:29;2.45;;;1.50;;
59105;SDS011;44891;50.204;8.132;2022-09-09T22:38:32;3.17;;;1.75;;
59105;SDS011;44891;50.204;8.132;2022-09-09T22:42:36;3.17;;;1.73;;
59105;SDS011;44891;50.204;8.132;2022-09-09T22:46:38;4.22;;;1.48;;
59105;SDS011;44891;50.204;8.132;2022-09-09T22:50:40;2.20;;;1.48;;
59105;SDS011;44891;50.204;8.132;2022-09-09T22:54:43;3.65;;;1.60;;
59105;SDS011;44891;50.204;8.132;2022-09-09T22:58:51;2.88;;;1.65;;
59105;SDS011;44891;50.204;8.132;2022-09-09T23:02:55;4.65;;;1.73;;
59105;SDS011;44891;50.204;8.132;2022-09-09T23:06:57;3.60;;;1.80;;
59105;SDS011;44891;50.204;8.132;2022-09-09T23:10:59;2.47;;;1.52;;
59105;SDS011;44891;50.204;8.132;2022-09-09T23:15:10;4.45;;;2.10;;
59105;SDS011;44891;50.204;8.132;2022-09-09T23:19:13;4.05;;;1.80;;
59105;SDS011;44891;50.204;8.132;2022-09-09T23:23:17;4.13;;;2.30;;
59105;SDS011;44891;50.204;8.132;2022-09-09T23:27:19;3.65;;;2.30;;
59105;SDS011;44891;50.204;8.132;2022-09-09T23:31:23;3.03;;;1.73;;
59105;SDS011;44891;50.204;8.132;2022-09-09T23:35:26;5.07;;;2.00;;
59105;SDS011;44891;50.204;8.132;2022-09-09T23:39:29;3.75;;;2.22;;
59105;SDS011;44891;50.204;8.132;2022-09-09T23:43:31;3.67;;;2.10;;
59105;SDS011;44891;50.204;8.132;2022-09-09T23:47:38;4.35;;;1.98;;
59105;SDS011;44891;50.204;8.132;2022-09-09T23:51:40;4.05;;;2.50;;
59105;SDS011;44891;50.204;8.132;2022-09-09T23:55:42;5.18;;;2.17;;
59105;SDS011;44891;50.204;8.132;2022-09-09T23:59:44;2.55;;;2.15;;
